FBMN

Maun Airport

Maun, Botswana
METAR FBMN 191200Z 35009KT 9999 FEW030 FEW035TCU 36/14 Q1012
Observed Flight Rules
Dec-19 @ 12:00 UTC (21 minutes ago) Visual Flight Rules
Wind Visibility Clouds
350° at 9 knots 10,000+ meters
  • Few at 3,000' AGL
  • Few at 3,500' AGL
Temperatures Readings
Current 36°C / 97°F
Dewpoint 14°C / 57°F
Humidity 27%
Altimeter 29.88" Hg
Pressure 1012 hPa
Elevation 900
METAR FBMN 191200Z 35009KT 9999 FEW030 FEW035TCU 36/14 Q1012
Observed Flight Rules
Dec-19 @ 12:00 UTC
(21 minutes ago)
VFR
Wind Visibility
350° at 9 knots 10,000+ meters
Clouds
  • Few at 3,000' AGL
  • Few at 3,500' AGL
Temperature Dewpoint
36°C / 97°F 14°C / 57°F
Humidity Altimeter Pressure
27% 29.88" Hg 1012 hPa